sensor_id;sensor_type;location;lat;lon;timestamp;P1;durP1;ratioP1;P2;durP2;ratioP2
72087;SDS011;59961;50.232;8.616;2022-08-11T00:01:26;6.60;;;2.93;;
72087;SDS011;59961;50.232;8.616;2022-08-11T00:03:54;5.50;;;2.90;;
72087;SDS011;59961;50.232;8.616;2022-08-11T00:06:26;4.72;;;3.08;;
72087;SDS011;59961;50.232;8.616;2022-08-11T00:08:52;4.47;;;2.90;;
72087;SDS011;59961;50.232;8.616;2022-08-11T00:11:18;8.20;;;2.83;;
72087;SDS011;59961;50.232;8.616;2022-08-11T00:13:44;7.55;;;3.55;;
72087;SDS011;59961;50.232;8.616;2022-08-11T00:16:14;4.90;;;2.80;;
72087;SDS011;59961;50.232;8.616;2022-08-11T00:18:43;5.50;;;2.90;;
72087;SDS011;59961;50.232;8.616;2022-08-11T00:21:10;4.68;;;3.05;;
72087;SDS011;59961;50.232;8.616;2022-08-11T00:23:43;4.68;;;2.75;;
72087;SDS011;59961;50.232;8.616;2022-08-11T00:26:09;5.25;;;3.10;;
72087;SDS011;59961;50.232;8.616;2022-08-11T00:28:35;8.43;;;3.37;;
72087;SDS011;59961;50.232;8.616;2022-08-11T00:31:01;5.57;;;3.20;;
72087;SDS011;59961;50.232;8.616;2022-08-11T00:33:32;5.63;;;2.75;;
72087;SDS011;59961;50.232;8.616;2022-08-11T00:35:58;5.93;;;2.85;;
72087;SDS011;59961;50.232;8.616;2022-08-11T00:38:25;4.38;;;2.83;;
72087;SDS011;59961;50.232;8.616;2022-08-11T00:41:01;6.32;;;3.28;;
72087;SDS011;59961;50.232;8.616;2022-08-11T00:43:39;5.70;;;2.90;;
72087;SDS011;59961;50.232;8.616;2022-08-11T00:46:26;5.45;;;3.17;;
72087;SDS011;59961;50.232;8.616;2022-08-11T00:49:08;5.10;;;3.20;;
72087;SDS011;59961;50.232;8.616;2022-08-11T00:51:40;4.90;;;3.25;;
72087;SDS011;59961;50.232;8.616;2022-08-11T01:00:27;5.45;;;3.05;;
72087;SDS011;59961;50.232;8.616;2022-08-11T01:02:38;4.30;;;2.72;;
72087;SDS011;59961;50.232;8.616;2022-08-11T01:08:12;9.07;;;3.33;;
72087;SDS011;59961;50.232;8.616;2022-08-11T01:15:48;5.57;;;3.10;;
72087;SDS011;59961;50.232;8.616;2022-08-11T01:23:56;5.90;;;3.40;;
72087;SDS011;59961;50.232;8.616;2022-08-11T01:29:34;4.93;;;3.17;;
72087;SDS011;59961;50.232;8.616;2022-08-11T01:32:31;5.75;;;3.10;;
72087;SDS011;59961;50.232;8.616;2022-08-11T01:35:19;6.35;;;3.15;;
72087;SDS011;59961;50.232;8.616;2022-08-11T01:40:47;4.95;;;3.05;;
72087;SDS011;59961;50.232;8.616;2022-08-11T01:43:24;7.15;;;3.40;;
72087;SDS011;59961;50.232;8.616;2022-08-11T01:46:20;5.38;;;3.40;;
72087;SDS011;59961;50.232;8.616;2022-08-11T01:54:08;6.18;;;3.38;;
72087;SDS011;59961;50.232;8.616;2022-08-11T01:59:07;5.75;;;3.35;;
72087;SDS011;59961;50.232;8.616;2022-08-11T02:01:40;5.40;;;3.58;;
72087;SDS011;59961;50.232;8.616;2022-08-11T02:04:24;5.82;;;3.22;;
72087;SDS011;59961;50.232;8.616;2022-08-11T02:07:03;6.20;;;3.37;;
72087;SDS011;59961;50.232;8.616;2022-08-11T02:09:42;4.20;;;3.05;;
72087;SDS011;59961;50.232;8.616;2022-08-11T02:22:59;9.13;;;3.50;;
72087;SDS011;59961;50.232;8.616;2022-08-11T02:25:45;6.90;;;3.45;;
72087;SDS011;59961;50.232;8.616;2022-08-11T02:28:28;5.40;;;3.30;;
72087;SDS011;59961;50.232;8.616;2022-08-11T02:31:09;6.13;;;3.60;;
72087;SDS011;59961;50.232;8.616;2022-08-11T02:34:20;4.93;;;3.40;;
72087;SDS011;59961;50.232;8.616;2022-08-11T02:37:33;5.43;;;3.20;;
72087;SDS011;59961;50.232;8.616;2022-08-11T02:39:34;5.15;;;3.00;;
72087;SDS011;59961;50.232;8.616;2022-08-11T02:42:18;6.55;;;3.22;;
72087;SDS011;59961;50.232;8.616;2022-08-11T02:59:25;4.95;;;3.22;;
72087;SDS011;59961;50.232;8.616;2022-08-11T03:02:15;6.37;;;3.50;;
72087;SDS011;59961;50.232;8.616;2022-08-11T03:04:48;6.85;;;2.88;;
72087;SDS011;59961;50.232;8.616;2022-08-11T03:07:28;6.45;;;3.70;;
72087;SDS011;59961;50.232;8.616;2022-08-11T03:12:32;4.68;;;3.03;;
72087;SDS011;59961;50.232;8.616;2022-08-11T03:15:19;5.73;;;3.30;;
72087;SDS011;59961;50.232;8.616;2022-08-11T03:20:44;7.15;;;3.60;;
72087;SDS011;59961;50.232;8.616;2022-08-11T03:23:24;5.93;;;3.30;;
72087;SDS011;59961;50.232;8.616;2022-08-11T03:25:56;4.70;;;3.20;;
72087;SDS011;59961;50.232;8.616;2022-08-11T03:28:27;6.23;;;3.33;;
72087;SDS011;59961;50.232;8.616;2022-08-11T03:34:05;6.80;;;3.60;;
72087;SDS011;59961;50.232;8.616;2022-08-11T03:36:36;5.47;;;3.30;;
72087;SDS011;59961;50.232;8.616;2022-08-11T03:39:13;5.63;;;3.00;;
72087;SDS011;59961;50.232;8.616;2022-08-11T03:41:44;5.33;;;3.67;;
72087;SDS011;59961;50.232;8.616;2022-08-11T03:44:17;7.50;;;3.50;;
72087;SDS011;59961;50.232;8.616;2022-08-11T03:46:55;5.68;;;3.30;;
72087;SDS011;59961;50.232;8.616;2022-08-11T03:49:37;7.88;;;4.05;;
72087;SDS011;59961;50.232;8.616;2022-08-11T03:52:10;5.25;;;3.55;;
72087;SDS011;59961;50.232;8.616;2022-08-11T03:57:20;4.85;;;3.33;;
72087;SDS011;59961;50.232;8.616;2022-08-11T04:02:59;7.70;;;3.38;;
72087;SDS011;59961;50.232;8.616;2022-08-11T04:21:38;11.13;;;3.40;;
72087;SDS011;59961;50.232;8.616;2022-08-11T04:24:17;5.13;;;3.20;;
72087;SDS011;59961;50.232;8.616;2022-08-11T04:29:38;9.38;;;3.67;;
72087;SDS011;59961;50.232;8.616;2022-08-11T04:32:13;5.95;;;3.20;;
72087;SDS011;59961;50.232;8.616;2022-08-11T04:57:08;10.15;;;4.05;;
72087;SDS011;59961;50.232;8.616;2022-08-11T05:00:02;6.80;;;3.35;;
72087;SDS011;59961;50.232;8.616;2022-08-11T05:03:02;7.30;;;3.38;;
72087;SDS011;59961;50.232;8.616;2022-08-11T05:11:57;5.13;;;3.33;;
72087;SDS011;59961;50.232;8.616;2022-08-11T05:13:48;6.88;;;3.75;;
72087;SDS011;59961;50.232;8.616;2022-08-11T05:16:34;6.03;;;3.42;;
72087;SDS011;59961;50.232;8.616;2022-08-11T05:19:24;7.95;;;3.50;;
72087;SDS011;59961;50.232;8.616;2022-08-11T05:22:09;7.37;;;3.50;;
72087;SDS011;59961;50.232;8.616;2022-08-11T05:25:11;7.38;;;3.53;;
72087;SDS011;59961;50.232;8.616;2022-08-11T05:28:02;11.00;;;3.45;;
72087;SDS011;59961;50.232;8.616;2022-08-11T05:30:47;8.43;;;3.20;;
72087;SDS011;59961;50.232;8.616;2022-08-11T05:33:34;5.05;;;3.35;;
72087;SDS011;59961;50.232;8.616;2022-08-11T05:36:24;6.17;;;3.30;;
72087;SDS011;59961;50.232;8.616;2022-08-11T05:39:14;7.45;;;3.85;;
72087;SDS011;59961;50.232;8.616;2022-08-11T05:41:58;8.13;;;3.38;;
72087;SDS011;59961;50.232;8.616;2022-08-11T05:44:46;6.57;;;3.10;;
72087;SDS011;59961;50.232;8.616;2022-08-11T05:47:31;6.82;;;3.45;;
72087;SDS011;59961;50.232;8.616;2022-08-11T05:50:17;8.20;;;3.17;;
72087;SDS011;59961;50.232;8.616;2022-08-11T05:53:02;5.30;;;2.90;;
72087;SDS011;59961;50.232;8.616;2022-08-11T05:55:46;5.18;;;2.80;;
72087;SDS011;59961;50.232;8.616;2022-08-11T05:58:35;6.70;;;3.00;;
72087;SDS011;59961;50.232;8.616;2022-08-11T06:01:02;6.05;;;3.00;;
72087;SDS011;59961;50.232;8.616;2022-08-11T06:03:28;6.77;;;3.43;;
72087;SDS011;59961;50.232;8.616;2022-08-11T06:05:53;7.50;;;3.00;;
72087;SDS011;59961;50.232;8.616;2022-08-11T06:08:29;5.40;;;2.88;;
72087;SDS011;59961;50.232;8.616;2022-08-11T06:10:59;6.93;;;3.30;;
72087;SDS011;59961;50.232;8.616;2022-08-11T06:13:25;6.63;;;3.00;;
72087;SDS011;59961;50.232;8.616;2022-08-11T06:15:51;10.05;;;3.05;;
72087;SDS011;59961;50.232;8.616;2022-08-11T06:18:17;7.07;;;2.90;;
72087;SDS011;59961;50.232;8.616;2022-08-11T06:20:52;7.53;;;2.67;;
72087;SDS011;59961;50.232;8.616;2022-08-11T06:23:19;6.22;;;3.10;;
72087;SDS011;59961;50.232;8.616;2022-08-11T06:25:46;7.40;;;2.80;;
72087;SDS011;59961;50.232;8.616;2022-08-11T06:28:12;5.60;;;2.70;;
72087;SDS011;59961;50.232;8.616;2022-08-11T06:30:40;4.30;;;2.50;;
72087;SDS011;59961;50.232;8.616;2022-08-11T06:33:10;6.28;;;2.63;;
72087;SDS011;59961;50.232;8.616;2022-08-11T06:38:25;6.22;;;2.80;;
72087;SDS011;59961;50.232;8.616;2022-08-11T06:40:57;6.32;;;2.97;;
72087;SDS011;59961;50.232;8.616;2022-08-11T06:46:29;5.38;;;2.75;;
72087;SDS011;59961;50.232;8.616;2022-08-11T06:48:55;6.53;;;2.60;;
72087;SDS011;59961;50.232;8.616;2022-08-11T06:51:20;7.20;;;3.20;;
72087;SDS011;59961;50.232;8.616;2022-08-11T06:53:50;5.63;;;2.38;;
72087;SDS011;59961;50.232;8.616;2022-08-11T06:56:21;7.18;;;2.75;;
72087;SDS011;59961;50.232;8.616;2022-08-11T06:59:05;3.63;;;2.35;;
72087;SDS011;59961;50.232;8.616;2022-08-11T07:02:11;4.15;;;2.60;;
72087;SDS011;59961;50.232;8.616;2022-08-11T07:04:44;7.80;;;2.77;;
72087;SDS011;59961;50.232;8.616;2022-08-11T07:07:25;3.85;;;2.45;;
72087;SDS011;59961;50.232;8.616;2022-08-11T07:13:19;4.50;;;2.67;;
72087;SDS011;59961;50.232;8.616;2022-08-11T07:16:04;4.18;;;2.42;;
72087;SDS011;59961;50.232;8.616;2022-08-11T07:18:34;4.30;;;2.50;;
72087;SDS011;59961;50.232;8.616;2022-08-11T07:21:21;6.70;;;2.65;;
72087;SDS011;59961;50.232;8.616;2022-08-11T07:24:08;8.18;;;2.88;;
72087;SDS011;59961;50.232;8.616;2022-08-11T07:26:54;4.38;;;2.90;;
72087;SDS011;59961;50.232;8.616;2022-08-11T07:29:38;3.83;;;2.30;;
72087;SDS011;59961;50.232;8.616;2022-08-11T07:32:12;5.47;;;2.65;;
72087;SDS011;59961;50.232;8.616;2022-08-11T07:34:39;5.75;;;2.30;;
72087;SDS011;59961;50.232;8.616;2022-08-11T07:37:09;6.40;;;2.50;;
72087;SDS011;59961;50.232;8.616;2022-08-11T07:39:36;5.97;;;2.40;;
72087;SDS011;59961;50.232;8.616;2022-08-11T07:42:09;4.27;;;2.50;;
72087;SDS011;59961;50.232;8.616;2022-08-11T07:44:34;3.70;;;2.42;;
72087;SDS011;59961;50.232;8.616;2022-08-11T07:47:23;4.20;;;2.40;;
72087;SDS011;59961;50.232;8.616;2022-08-11T07:50:08;5.05;;;2.60;;
72087;SDS011;59961;50.232;8.616;2022-08-11T07:52:52;9.77;;;2.60;;
72087;SDS011;59961;50.232;8.616;2022-08-11T07:55:17;6.07;;;2.50;;
72087;SDS011;59961;50.232;8.616;2022-08-11T07:57:43;6.20;;;2.33;;
72087;SDS011;59961;50.232;8.616;2022-08-11T08:00:28;5.07;;;2.30;;
72087;SDS011;59961;50.232;8.616;2022-08-11T08:03:12;9.45;;;2.53;;
72087;SDS011;59961;50.232;8.616;2022-08-11T08:05:56;6.55;;;3.17;;
72087;SDS011;59961;50.232;8.616;2022-08-11T08:08:40;3.88;;;2.30;;
72087;SDS011;59961;50.232;8.616;2022-08-11T08:11:24;6.05;;;2.50;;
72087;SDS011;59961;50.232;8.616;2022-08-11T08:14:08;6.13;;;2.60;;
72087;SDS011;59961;50.232;8.616;2022-08-11T08:16:53;5.20;;;2.55;;
72087;SDS011;59961;50.232;8.616;2022-08-11T08:19:37;5.35;;;2.65;;
72087;SDS011;59961;50.232;8.616;2022-08-11T08:22:03;7.32;;;3.13;;
72087;SDS011;59961;50.232;8.616;2022-08-11T08:24:29;8.77;;;3.10;;
72087;SDS011;59961;50.232;8.616;2022-08-11T08:26:54;6.30;;;3.17;;
72087;SDS011;59961;50.232;8.616;2022-08-11T08:29:24;6.05;;;3.00;;
72087;SDS011;59961;50.232;8.616;2022-08-11T08:32:08;6.53;;;2.53;;
72087;SDS011;59961;50.232;8.616;2022-08-11T08:34:35;7.70;;;2.53;;
72087;SDS011;59961;50.232;8.616;2022-08-11T08:37:01;5.60;;;2.80;;
72087;SDS011;59961;50.232;8.616;2022-08-11T08:39:26;5.83;;;2.90;;
72087;SDS011;59961;50.232;8.616;2022-08-11T08:41:52;4.07;;;2.33;;
72087;SDS011;59961;50.232;8.616;2022-08-11T08:44:18;6.32;;;2.70;;
72087;SDS011;59961;50.232;8.616;2022-08-11T08:46:47;7.30;;;3.05;;
72087;SDS011;59961;50.232;8.616;2022-08-11T08:49:13;8.05;;;2.90;;
72087;SDS011;59961;50.232;8.616;2022-08-11T08:51:40;6.22;;;3.00;;
72087;SDS011;59961;50.232;8.616;2022-08-11T08:54:08;4.40;;;2.57;;
72087;SDS011;59961;50.232;8.616;2022-08-11T08:56:34;4.68;;;2.80;;
72087;SDS011;59961;50.232;8.616;2022-08-11T08:59:03;7.35;;;3.28;;
72087;SDS011;59961;50.232;8.616;2022-08-11T09:01:29;7.90;;;2.57;;
72087;SDS011;59961;50.232;8.616;2022-08-11T09:03:55;5.73;;;2.47;;
72087;SDS011;59961;50.232;8.616;2022-08-11T09:06:21;8.60;;;3.55;;
72087;SDS011;59961;50.232;8.616;2022-08-11T09:08:46;4.10;;;2.73;;
72087;SDS011;59961;50.232;8.616;2022-08-11T09:11:12;6.40;;;3.07;;
72087;SDS011;59961;50.232;8.616;2022-08-11T09:13:56;5.22;;;2.70;;
72087;SDS011;59961;50.232;8.616;2022-08-11T09:16:22;7.07;;;3.37;;
72087;SDS011;59961;50.232;8.616;2022-08-11T09:18:48;7.18;;;2.85;;
72087;SDS011;59961;50.232;8.616;2022-08-11T09:21:14;3.70;;;2.30;;
72087;SDS011;59961;50.232;8.616;2022-08-11T09:23:39;4.30;;;2.20;;
72087;SDS011;59961;50.232;8.616;2022-08-11T09:26:24;6.30;;;2.20;;
72087;SDS011;59961;50.232;8.616;2022-08-11T09:29:09;5.70;;;2.60;;
72087;SDS011;59961;50.232;8.616;2022-08-11T09:31:34;9.07;;;2.40;;
72087;SDS011;59961;50.232;8.616;2022-08-11T09:33:59;4.87;;;2.33;;
72087;SDS011;59961;50.232;8.616;2022-08-11T09:36:25;6.18;;;2.30;;
72087;SDS011;59961;50.232;8.616;2022-08-11T09:39:09;3.47;;;2.00;;
72087;SDS011;59961;50.232;8.616;2022-08-11T09:41:53;4.47;;;2.30;;
72087;SDS011;59961;50.232;8.616;2022-08-11T09:44:19;9.77;;;2.33;;
72087;SDS011;59961;50.232;8.616;2022-08-11T09:47:03;5.88;;;2.47;;
72087;SDS011;59961;50.232;8.616;2022-08-11T09:49:37;4.97;;;2.00;;
72087;SDS011;59961;50.232;8.616;2022-08-11T09:52:02;7.18;;;2.10;;
72087;SDS011;59961;50.232;8.616;2022-08-11T09:54:28;5.23;;;2.30;;
72087;SDS011;59961;50.232;8.616;2022-08-11T09:56:53;7.77;;;2.40;;
72087;SDS011;59961;50.232;8.616;2022-08-11T09:59:37;3.88;;;2.10;;
72087;SDS011;59961;50.232;8.616;2022-08-11T10:02:03;8.43;;;2.50;;
72087;SDS011;59961;50.232;8.616;2022-08-11T10:04:34;8.32;;;2.58;;
72087;SDS011;59961;50.232;8.616;2022-08-11T10:07:02;3.88;;;2.13;;
72087;SDS011;59961;50.232;8.616;2022-08-11T10:09:33;4.90;;;2.42;;
72087;SDS011;59961;50.232;8.616;2022-08-11T10:11:59;5.88;;;2.50;;
72087;SDS011;59961;50.232;8.616;2022-08-11T10:14:27;6.73;;;2.87;;
72087;SDS011;59961;50.232;8.616;2022-08-11T10:17:13;3.80;;;2.30;;
72087;SDS011;59961;50.232;8.616;2022-08-11T10:19:39;5.65;;;2.40;;
72087;SDS011;59961;50.232;8.616;2022-08-11T10:22:06;10.30;;;2.00;;
72087;SDS011;59961;50.232;8.616;2022-08-11T10:24:50;5.97;;;2.47;;
72087;SDS011;59961;50.232;8.616;2022-08-11T10:27:35;5.83;;;2.40;;
72087;SDS011;59961;50.232;8.616;2022-08-11T10:30:00;5.07;;;2.88;;
72087;SDS011;59961;50.232;8.616;2022-08-11T10:32:44;4.57;;;2.43;;
72087;SDS011;59961;50.232;8.616;2022-08-11T10:35:30;5.40;;;2.47;;
72087;SDS011;59961;50.232;8.616;2022-08-11T10:37:56;4.75;;;2.60;;
72087;SDS011;59961;50.232;8.616;2022-08-11T10:40:22;6.22;;;2.45;;
72087;SDS011;59961;50.232;8.616;2022-08-11T10:42:57;4.13;;;2.03;;
72087;SDS011;59961;50.232;8.616;2022-08-11T10:45:37;4.18;;;2.35;;
72087;SDS011;59961;50.232;8.616;2022-08-11T10:48:35;3.70;;;2.45;;
72087;SDS011;59961;50.232;8.616;2022-08-11T10:51:02;6.77;;;2.20;;
72087;SDS011;59961;50.232;8.616;2022-08-11T10:53:39;3.85;;;2.28;;
72087;SDS011;59961;50.232;8.616;2022-08-11T10:56:23;5.68;;;2.50;;
72087;SDS011;59961;50.232;8.616;2022-08-11T10:59:07;5.63;;;2.35;;
72087;SDS011;59961;50.232;8.616;2022-08-11T11:01:33;6.50;;;2.60;;
72087;SDS011;59961;50.232;8.616;2022-08-11T11:09:01;3.85;;;2.20;;
72087;SDS011;59961;50.232;8.616;2022-08-11T11:11:26;5.32;;;2.72;;
72087;SDS011;59961;50.232;8.616;2022-08-11T11:14:16;4.60;;;2.20;;
72087;SDS011;59961;50.232;8.616;2022-08-11T11:17:01;3.37;;;2.30;;
72087;SDS011;59961;50.232;8.616;2022-08-11T11:19:33;5.05;;;2.60;;
72087;SDS011;59961;50.232;8.616;2022-08-11T11:22:01;4.25;;;2.55;;
72087;SDS011;59961;50.232;8.616;2022-08-11T11:25:01;6.35;;;2.22;;
72087;SDS011;59961;50.232;8.616;2022-08-11T11:27:31;5.30;;;2.50;;
72087;SDS011;59961;50.232;8.616;2022-08-11T11:30:01;7.07;;;2.67;;
72087;SDS011;59961;50.232;8.616;2022-08-11T11:37:50;4.63;;;2.33;;
72087;SDS011;59961;50.232;8.616;2022-08-11T11:40:17;5.03;;;2.50;;
72087;SDS011;59961;50.232;8.616;2022-08-11T11:42:46;4.23;;;2.40;;
72087;SDS011;59961;50.232;8.616;2022-08-11T11:45:16;4.90;;;2.75;;
72087;SDS011;59961;50.232;8.616;2022-08-11T11:47:42;4.30;;;2.40;;
72087;SDS011;59961;50.232;8.616;2022-08-11T11:50:08;4.33;;;2.57;;
72087;SDS011;59961;50.232;8.616;2022-08-11T11:52:34;5.77;;;2.47;;
72087;SDS011;59961;50.232;8.616;2022-08-11T11:55:00;4.63;;;2.30;;
72087;SDS011;59961;50.232;8.616;2022-08-11T11:57:26;4.88;;;2.10;;
72087;SDS011;59961;50.232;8.616;2022-08-11T12:00:10;5.27;;;2.30;;
72087;SDS011;59961;50.232;8.616;2022-08-11T12:02:58;4.30;;;2.38;;
72087;SDS011;59961;50.232;8.616;2022-08-11T12:05:24;5.93;;;2.38;;
72087;SDS011;59961;50.232;8.616;2022-08-11T12:07:50;3.53;;;2.22;;
72087;SDS011;59961;50.232;8.616;2022-08-11T12:10:35;3.88;;;2.63;;
72087;SDS011;59961;50.232;8.616;2022-08-11T12:13:00;4.07;;;2.50;;
72087;SDS011;59961;50.232;8.616;2022-08-11T12:15:44;7.88;;;2.30;;
72087;SDS011;59961;50.232;8.616;2022-08-11T12:18:10;5.20;;;2.50;;
72087;SDS011;59961;50.232;8.616;2022-08-11T12:20:35;7.30;;;2.70;;
72087;SDS011;59961;50.232;8.616;2022-08-11T12:23:01;4.47;;;2.60;;
72087;SDS011;59961;50.232;8.616;2022-08-11T12:25:44;4.72;;;2.35;;
72087;SDS011;59961;50.232;8.616;2022-08-11T12:28:28;4.73;;;2.20;;
72087;SDS011;59961;50.232;8.616;2022-08-11T12:30:54;6.77;;;2.60;;
72087;SDS011;59961;50.232;8.616;2022-08-11T12:33:19;4.25;;;2.55;;
72087;SDS011;59961;50.232;8.616;2022-08-11T12:35:45;4.63;;;2.50;;
72087;SDS011;59961;50.232;8.616;2022-08-11T12:38:13;5.15;;;2.40;;
72087;SDS011;59961;50.232;8.616;2022-08-11T12:40:38;5.25;;;2.08;;
72087;SDS011;59961;50.232;8.616;2022-08-11T12:43:23;5.63;;;2.33;;
72087;SDS011;59961;50.232;8.616;2022-08-11T12:46:11;3.40;;;2.40;;
72087;SDS011;59961;50.232;8.616;2022-08-11T12:48:44;4.10;;;2.20;;
72087;SDS011;59961;50.232;8.616;2022-08-11T12:51:31;5.72;;;2.70;;
72087;SDS011;59961;50.232;8.616;2022-08-11T12:54:17;6.97;;;2.40;;
72087;SDS011;59961;50.232;8.616;2022-08-11T12:56:46;5.23;;;2.40;;
72087;SDS011;59961;50.232;8.616;2022-08-11T12:59:31;4.60;;;2.55;;
72087;SDS011;59961;50.232;8.616;2022-08-11T13:02:17;3.60;;;2.20;;
72087;SDS011;59961;50.232;8.616;2022-08-11T13:05:02;5.13;;;2.42;;
72087;SDS011;59961;50.232;8.616;2022-08-11T13:07:28;3.70;;;2.47;;
72087;SDS011;59961;50.232;8.616;2022-08-11T13:09:54;5.20;;;2.67;;
72087;SDS011;59961;50.232;8.616;2022-08-11T13:12:21;3.55;;;2.60;;
72087;SDS011;59961;50.232;8.616;2022-08-11T13:15:06;4.00;;;2.40;;
72087;SDS011;59961;50.232;8.616;2022-08-11T13:17:31;4.20;;;2.53;;
72087;SDS011;59961;50.232;8.616;2022-08-11T13:19:58;4.65;;;2.45;;
72087;SDS011;59961;50.232;8.616;2022-08-11T13:22:24;4.00;;;2.13;;
72087;SDS011;59961;50.232;8.616;2022-08-11T13:24:50;5.50;;;2.92;;
72087;SDS011;59961;50.232;8.616;2022-08-11T13:27:16;4.53;;;2.50;;
72087;SDS011;59961;50.232;8.616;2022-08-11T13:29:42;5.10;;;2.40;;
72087;SDS011;59961;50.232;8.616;2022-08-11T13:32:10;5.03;;;2.35;;
72087;SDS011;59961;50.232;8.616;2022-08-11T13:34:36;4.70;;;2.40;;
72087;SDS011;59961;50.232;8.616;2022-08-11T13:37:05;7.53;;;2.70;;
72087;SDS011;59961;50.232;8.616;2022-08-11T13:39:31;7.25;;;2.58;;
72087;SDS011;59961;50.232;8.616;2022-08-11T13:41:58;6.60;;;3.00;;
72087;SDS011;59961;50.232;8.616;2022-08-11T13:44:24;5.47;;;2.78;;
72087;SDS011;59961;50.232;8.616;2022-08-11T13:46:51;5.18;;;2.55;;
72087;SDS011;59961;50.232;8.616;2022-08-11T13:49:19;4.03;;;2.47;;
72087;SDS011;59961;50.232;8.616;2022-08-11T13:51:44;4.83;;;2.37;;
72087;SDS011;59961;50.232;8.616;2022-08-11T13:54:11;5.20;;;2.47;;
72087;SDS011;59961;50.232;8.616;2022-08-11T13:56:41;3.80;;;2.40;;
72087;SDS011;59961;50.232;8.616;2022-08-11T13:59:07;5.93;;;2.42;;
72087;SDS011;59961;50.232;8.616;2022-08-11T14:01:33;5.13;;;2.63;;
72087;SDS011;59961;50.232;8.616;2022-08-11T14:04:02;4.00;;;2.20;;
72087;SDS011;59961;50.232;8.616;2022-08-11T14:06:29;5.10;;;2.25;;
72087;SDS011;59961;50.232;8.616;2022-08-11T14:08:55;4.10;;;2.53;;
72087;SDS011;59961;50.232;8.616;2022-08-11T14:11:20;4.93;;;2.57;;
72087;SDS011;59961;50.232;8.616;2022-08-11T14:14:04;3.00;;;2.15;;
72087;SDS011;59961;50.232;8.616;2022-08-11T14:16:31;4.90;;;2.47;;
72087;SDS011;59961;50.232;8.616;2022-08-11T14:18:59;4.43;;;2.70;;
72087;SDS011;59961;50.232;8.616;2022-08-11T14:21:25;5.20;;;2.70;;
72087;SDS011;59961;50.232;8.616;2022-08-11T14:24:10;3.70;;;2.25;;
72087;SDS011;59961;50.232;8.616;2022-08-11T14:26:36;6.80;;;2.97;;
72087;SDS011;59961;50.232;8.616;2022-08-11T14:29:10;4.88;;;2.60;;
72087;SDS011;59961;50.232;8.616;2022-08-11T14:31:38;5.43;;;2.33;;
72087;SDS011;59961;50.232;8.616;2022-08-11T14:34:05;4.55;;;2.50;;
72087;SDS011;59961;50.232;8.616;2022-08-11T14:36:38;4.22;;;2.50;;
72087;SDS011;59961;50.232;8.616;2022-08-11T14:39:07;3.95;;;2.30;;
72087;SDS011;59961;50.232;8.616;2022-08-11T14:41:35;4.68;;;2.25;;
72087;SDS011;59961;50.232;8.616;2022-08-11T14:44:19;3.93;;;2.13;;
72087;SDS011;59961;50.232;8.616;2022-08-11T14:47:03;4.47;;;2.50;;
72087;SDS011;59961;50.232;8.616;2022-08-11T14:49:29;4.65;;;2.35;;
72087;SDS011;59961;50.232;8.616;2022-08-11T14:51:55;5.17;;;2.43;;
72087;SDS011;59961;50.232;8.616;2022-08-11T14:54:25;5.13;;;2.65;;
72087;SDS011;59961;50.232;8.616;2022-08-11T14:57:10;3.80;;;2.25;;
72087;SDS011;59961;50.232;8.616;2022-08-11T14:59:36;5.77;;;2.70;;
72087;SDS011;59961;50.232;8.616;2022-08-11T15:02:02;4.05;;;2.63;;
72087;SDS011;59961;50.232;8.616;2022-08-11T15:04:47;4.25;;;2.53;;
72087;SDS011;59961;50.232;8.616;2022-08-11T15:07:12;4.70;;;2.20;;
72087;SDS011;59961;50.232;8.616;2022-08-11T15:09:41;5.67;;;2.30;;
72087;SDS011;59961;50.232;8.616;2022-08-11T15:12:08;4.05;;;2.60;;
72087;SDS011;59961;50.232;8.616;2022-08-11T15:14:34;5.23;;;2.20;;
72087;SDS011;59961;50.232;8.616;2022-08-11T15:17:18;6.50;;;2.45;;
72087;SDS011;59961;50.232;8.616;2022-08-11T15:19:43;5.90;;;2.50;;
72087;SDS011;59961;50.232;8.616;2022-08-11T15:22:29;4.82;;;2.50;;
72087;SDS011;59961;50.232;8.616;2022-08-11T15:25:13;5.20;;;2.20;;
72087;SDS011;59961;50.232;8.616;2022-08-11T15:27:39;3.67;;;2.10;;
72087;SDS011;59961;50.232;8.616;2022-08-11T15:30:24;3.35;;;2.10;;
72087;SDS011;59961;50.232;8.616;2022-08-11T15:33:08;5.03;;;2.20;;
72087;SDS011;59961;50.232;8.616;2022-08-11T15:35:53;7.88;;;2.20;;
72087;SDS011;59961;50.232;8.616;2022-08-11T15:38:39;5.87;;;2.40;;
72087;SDS011;59961;50.232;8.616;2022-08-11T15:41:06;3.88;;;2.30;;
72087;SDS011;59961;50.232;8.616;2022-08-11T15:43:51;2.90;;;2.33;;
72087;SDS011;59961;50.232;8.616;2022-08-11T15:46:40;6.50;;;2.30;;
72087;SDS011;59961;50.232;8.616;2022-08-11T15:49:10;4.03;;;2.30;;
72087;SDS011;59961;50.232;8.616;2022-08-11T15:51:36;3.60;;;2.30;;
72087;SDS011;59961;50.232;8.616;2022-08-11T15:54:07;3.22;;;2.10;;
72087;SDS011;59961;50.232;8.616;2022-08-11T15:56:33;10.07;;;2.20;;
72087;SDS011;59961;50.232;8.616;2022-08-11T15:59:00;5.43;;;2.20;;
72087;SDS011;59961;50.232;8.616;2022-08-11T16:01:46;3.28;;;1.90;;
72087;SDS011;59961;50.232;8.616;2022-08-11T16:04:31;5.43;;;2.50;;
72087;SDS011;59961;50.232;8.616;2022-08-11T16:07:00;4.90;;;2.10;;
72087;SDS011;59961;50.232;8.616;2022-08-11T16:09:34;5.65;;;2.53;;
72087;SDS011;59961;50.232;8.616;2022-08-11T16:12:04;3.38;;;2.20;;
72087;SDS011;59961;50.232;8.616;2022-08-11T16:14:32;5.93;;;2.30;;
72087;SDS011;59961;50.232;8.616;2022-08-11T16:17:17;3.38;;;2.00;;
72087;SDS011;59961;50.232;8.616;2022-08-11T16:19:43;4.13;;;2.30;;
72087;SDS011;59961;50.232;8.616;2022-08-11T16:22:10;5.20;;;2.40;;
72087;SDS011;59961;50.232;8.616;2022-08-11T16:24:37;6.28;;;2.30;;
72087;SDS011;59961;50.232;8.616;2022-08-11T16:27:03;6.22;;;2.10;;
72087;SDS011;59961;50.232;8.616;2022-08-11T16:29:30;4.63;;;2.23;;
72087;SDS011;59961;50.232;8.616;2022-08-11T16:31:56;5.13;;;2.60;;
72087;SDS011;59961;50.232;8.616;2022-08-11T16:34:52;14.25;;;7.43;;
72087;SDS011;59961;50.232;8.616;2022-08-11T16:37:37;12.57;;;6.20;;
72087;SDS011;59961;50.232;8.616;2022-08-11T16:40:21;9.57;;;5.80;;
72087;SDS011;59961;50.232;8.616;2022-08-11T16:42:47;7.50;;;2.87;;
72087;SDS011;59961;50.232;8.616;2022-08-11T16:45:31;4.85;;;2.42;;
72087;SDS011;59961;50.232;8.616;2022-08-11T16:48:15;4.97;;;2.38;;
72087;SDS011;59961;50.232;8.616;2022-08-11T16:50:41;5.47;;;2.83;;
72087;SDS011;59961;50.232;8.616;2022-08-11T16:53:07;6.00;;;2.67;;
72087;SDS011;59961;50.232;8.616;2022-08-11T16:55:32;6.07;;;2.63;;
72087;SDS011;59961;50.232;8.616;2022-08-11T16:57:58;4.90;;;2.50;;
72087;SDS011;59961;50.232;8.616;2022-08-11T17:00:42;6.95;;;2.70;;
72087;SDS011;59961;50.232;8.616;2022-08-11T17:03:08;4.57;;;2.40;;
72087;SDS011;59961;50.232;8.616;2022-08-11T17:05:52;6.83;;;3.10;;
72087;SDS011;59961;50.232;8.616;2022-08-11T17:08:42;4.28;;;2.90;;
72087;SDS011;59961;50.232;8.616;2022-08-11T17:11:30;3.70;;;2.55;;
72087;SDS011;59961;50.232;8.616;2022-08-11T17:14:24;7.80;;;5.57;;
72087;SDS011;59961;50.232;8.616;2022-08-11T17:16:50;6.13;;;2.90;;
72087;SDS011;59961;50.232;8.616;2022-08-11T17:19:17;4.07;;;2.80;;
72087;SDS011;59961;50.232;8.616;2022-08-11T17:21:45;5.50;;;2.78;;
72087;SDS011;59961;50.232;8.616;2022-08-11T17:24:31;7.22;;;2.25;;
72087;SDS011;59961;50.232;8.616;2022-08-11T17:26:57;5.27;;;2.97;;
72087;SDS011;59961;50.232;8.616;2022-08-11T17:29:31;6.05;;;2.78;;
72087;SDS011;59961;50.232;8.616;2022-08-11T17:31:56;8.02;;;4.00;;
72087;SDS011;59961;50.232;8.616;2022-08-11T17:34:42;9.48;;;2.78;;
72087;SDS011;59961;50.232;8.616;2022-08-11T17:37:26;3.53;;;2.58;;
72087;SDS011;59961;50.232;8.616;2022-08-11T17:39:52;4.87;;;2.93;;
72087;SDS011;59961;50.232;8.616;2022-08-11T17:42:18;5.18;;;3.35;;
72087;SDS011;59961;50.232;8.616;2022-08-11T17:45:03;4.47;;;2.75;;
72087;SDS011;59961;50.232;8.616;2022-08-11T17:47:47;5.75;;;2.20;;
72087;SDS011;59961;50.232;8.616;2022-08-11T17:50:31;3.75;;;2.80;;